Time;durP1;ratioP1;P1;durP2;ratioP2;P2;SDS_P1;SDS_P2;PMS_P1;PMS_P2;Temp;Humidity;BMP_temperature;BMP_pressure;BME280_temperature;BME280_humidity;BME280_pressure;Samples;Min_cycle;Max_cycle;Signal;HPM_P1;HPM_P2
2022/07/17 00:01:15;;;;;;;14.48;2.60;;;47.00;24.40;;;;;;4996105;28;20029;-68
2022/07/17 00:03:42;;;;;;;17.92;3.03;;;47.00;24.90;;;;;;5000560;28;20412;-70
2022/07/17 00:06:08;;;;;;;12.00;2.25;;;47.00;24.90;;;;;;4979773;28;20034;-68
2022/07/17 00:08:34;;;;;;;11.73;2.65;;;47.00;25.40;;;;;;4994808;28;20076;-70
2022/07/17 00:11:01;;;;;;;14.50;2.40;;;46.90;25.20;;;;;;4990432;28;20511;-68
2022/07/17 00:13:27;;;;;;;16.00;2.85;;;46.70;24.70;;;;;;4996860;28;20501;-68
2022/07/17 00:15:54;;;;;;;18.25;2.63;;;46.50;25.00;;;;;;5004153;28;20034;-68
2022/07/17 00:18:20;;;;;;;14.48;2.28;;;46.50;25.20;;;;;;4986024;28;20097;-69
2022/07/17 00:20:47;;;;;;;9.52;2.22;;;46.40;25.00;;;;;;4998412;28;20034;-68
2022/07/17 00:23:13;;;;;;;19.02;2.28;;;46.50;25.50;;;;;;4998537;28;20030;-69
2022/07/17 00:25:40;;;;;;;16.00;2.40;;;46.40;25.60;;;;;;5002316;28;20153;-69
2022/07/17 00:28:06;;;;;;;8.57;1.98;;;46.30;25.80;;;;;;4984352;28;20026;-69
2022/07/17 00:30:33;;;;;;;11.20;2.28;;;46.30;25.20;;;;;;4997927;28;20473;-69
2022/07/17 00:32:59;;;;;;;20.13;2.65;;;46.20;25.80;;;;;;4995805;28;20480;-68
2022/07/17 00:35:26;;;;;;;15.15;2.60;;;46.10;25.40;;;;;;4998885;28;20473;-69
2022/07/17 00:37:52;;;;;;;11.90;2.65;;;46.10;26.00;;;;;;4994399;28;20518;-68
2022/07/17 00:40:21;;;;;;;16.67;2.97;;;46.10;26.50;;;;;;4993851;28;20380;-69
2022/07/17 00:42:48;;;;;;;23.23;3.05;;;45.90;26.30;;;;;;4995935;28;20110;-69
2022/07/17 00:45:15;;;;;;;19.30;2.83;;;45.60;26.60;;;;;;4995382;28;20037;-67
2022/07/17 00:47:55;;;;;;;16.83;3.25;;;45.60;26.90;;;;;;5000377;28;20037;-70
2022/07/17 00:50:29;;;;;;;13.88;3.45;;;45.60;26.70;;;;;;4998015;28;20031;-71
2022/07/17 00:52:55;;;;;;;19.38;3.35;;;45.50;26.40;;;;;;4994635;28;20445;-69
2022/07/17 00:55:24;;;;;;;18.90;3.17;;;45.50;27.10;;;;;;5000734;28;20069;-69
2022/07/17 00:57:54;;;;;;;14.07;3.65;;;45.40;26.50;;;;;;4997547;28;20034;-71
2022/07/17 01:00:21;;;;;;;10.18;2.70;;;45.30;26.90;;;;;;4996365;28;20041;-69
2022/07/17 01:02:50;;;;;;;9.18;2.70;;;45.30;27.30;;;;;;4999330;28;20030;-71
2022/07/17 01:05:18;;;;;;;21.63;3.20;;;45.20;26.90;;;;;;5000586;28;20494;-68
2022/07/17 01:07:45;;;;;;;17.00;3.10;;;45.10;27.00;;;;;;4989315;28;20035;-68
2022/07/17 01:10:12;;;;;;;8.77;2.30;;;45.00;27.00;;;;;;5010460;28;20408;-70
2022/07/17 01:12:40;;;;;;;18.45;2.88;;;44.90;27.40;;;;;;4998686;28;20029;-69
2022/07/17 01:15:09;;;;;;;25.85;3.47;;;44.90;27.20;;;;;;5007230;28;20034;-71
2022/07/17 01:17:37;;;;;;;15.27;3.53;;;44.80;27.00;;;;;;5004001;28;20033;-68
2022/07/17 01:20:05;;;;;;;12.77;2.97;;;44.70;27.00;;;;;;4999710;28;20026;-68
2022/07/17 01:22:32;;;;;;;10.90;3.30;;;44.70;27.00;;;;;;4997843;28;20452;-69
2022/07/17 01:24:59;;;;;;;16.45;3.92;;;44.60;27.60;;;;;;4997030;28;20033;-68
2022/07/17 01:27:25;;;;;;;13.13;3.10;;;44.60;27.20;;;;;;5002733;28;20044;-68
2022/07/17 01:29:52;;;;;;;16.35;3.00;;;44.50;27.50;;;;;;5003297;28;20041;-71
2022/07/17 01:32:18;;;;;;;14.60;3.20;;;44.40;27.40;;;;;;4999772;28;20028;-68
2022/07/17 01:34:44;;;;;;;15.48;3.10;;;44.30;27.60;;;;;;5003388;28;20030;-70
2022/07/17 01:37:11;;;;;;;14.65;3.38;;;44.20;27.20;;;;;;4996893;28;20482;-69
2022/07/17 01:39:55;;;;;;;72.55;5.93;;;44.10;27.30;;;;;;4997348;28;20365;-72
2022/07/17 01:42:24;;;;;;;34.20;3.75;;;44.00;27.40;;;;;;4998332;28;20054;-68
2022/07/17 01:44:51;;;;;;;13.10;2.47;;;43.90;27.60;;;;;;5001517;28;20029;-69
2022/07/17 01:47:18;;;;;;;14.10;2.58;;;43.90;27.70;;;;;;4999875;28;20509;-70
2022/07/17 01:49:53;;;;;;;11.38;2.88;;;43.80;27.60;;;;;;4997592;28;20427;-70
2022/07/17 01:52:20;;;;;;;8.10;2.40;;;43.80;27.70;;;;;;5016444;28;20046;-69
2022/07/17 01:54:46;;;;;;;10.07;2.65;;;43.70;27.80;;;;;;5000029;28;20467;-71
2022/07/17 01:57:13;;;;;;;16.13;2.45;;;43.80;27.70;;;;;;5000521;28;20125;-69
2022/07/17 01:59:40;;;;;;;10.60;2.47;;;43.70;27.70;;;;;;4999447;28;20048;-69
2022/07/17 02:02:08;;;;;;;9.40;1.80;;;43.60;27.80;;;;;;5008055;28;20097;-69
2022/07/17 02:04:37;;;;;;;7.75;2.33;;;43.50;28.10;;;;;;5000602;28;20051;-69
2022/07/17 02:07:04;;;;;;;14.30;2.50;;;43.40;28.30;;;;;;4996538;28;20045;-69
2022/07/17 02:09:31;;;;;;;8.32;1.88;;;43.20;28.20;;;;;;4998923;28;20059;-67
2022/07/17 02:11:58;;;;;;;60.47;2.50;;;43.10;28.40;;;;;;5000623;28;20044;-70
2022/07/17 02:14:24;;;;;;;9.00;2.00;;;43.00;28.40;;;;;;5012802;28;20415;-68
2022/07/17 02:16:51;;;;;;;13.50;2.33;;;42.90;28.60;;;;;;4997460;28;20529;-69
2022/07/17 02:19:17;;;;;;;10.40;2.10;;;42.80;28.70;;;;;;4997143;28;20064;-71
2022/07/17 02:21:44;;;;;;;16.35;2.20;;;42.70;28.90;;;;;;4997425;28;20190;-70
2022/07/17 02:24:10;;;;;;;25.77;2.15;;;42.60;29.40;;;;;;4998326;28;20171;-69
2022/07/17 02:26:37;;;;;;;9.55;2.25;;;42.50;29.80;;;;;;4997379;28;20057;-69
2022/07/17 02:29:03;;;;;;;16.15;2.40;;;42.30;30.30;;;;;;5002486;28;20530;-72
2022/07/17 02:31:30;;;;;;;14.98;3.22;;;42.20;30.70;;;;;;5001308;28;20052;-70
2022/07/17 02:33:56;;;;;;;17.08;3.15;;;42.00;31.60;;;;;;4997632;28;20592;-72
2022/07/17 02:36:22;;;;;;;14.48;2.45;;;41.90;32.30;;;;;;4997295;28;20414;-71
2022/07/17 02:38:49;;;;;;;25.38;3.00;;;41.80;33.20;;;;;;4993018;28;21457;-72
2022/07/17 02:41:18;;;;;;;19.60;2.47;;;41.80;33.50;;;;;;4999660;28;20574;-71
2022/07/17 02:43:46;;;;;;;17.55;3.17;;;41.70;33.60;;;;;;4997925;28;20061;-72
2022/07/17 02:46:15;;;;;;;20.10;2.60;;;41.50;33.90;;;;;;5002704;28;20046;-71
2022/07/17 02:48:42;;;;;;;20.85;2.20;;;41.40;34.30;;;;;;5001455;28;20044;-72
2022/07/17 02:51:09;;;;;;;28.30;4.63;;;41.20;35.00;;;;;;4992495;28;20059;-72
2022/07/17 02:53:36;;;;;;;21.48;4.18;;;41.10;36.20;;;;;;4995280;28;20499;-69
2022/07/17 02:56:03;;;;;;;32.33;6.60;;;40.90;37.00;;;;;;4994688;28;20084;-70
2022/07/17 02:58:29;;;;;;;41.97;9.73;;;40.80;37.50;;;;;;4996610;28;20052;-70
2022/07/17 03:00:56;;;;;;;41.38;9.98;;;40.70;37.50;;;;;;4998572;28;20052;-70
2022/07/17 03:03:22;;;;;;;41.88;9.32;;;40.40;37.50;;;;;;4998008;28;20113;-71
2022/07/17 03:05:48;;;;;;;51.53;8.27;;;40.30;37.80;;;;;;4999568;28;20055;-68
2022/07/17 03:08:15;;;;;;;41.53;7.75;;;40.20;38.20;;;;;;4996901;28;20047;-69
2022/07/17 03:10:41;;;;;;;53.65;7.75;;;40.10;38.70;;;;;;5015559;28;20074;-70
2022/07/17 03:13:08;;;;;;;37.40;6.95;;;40.10;39.00;;;;;;4995770;28;20099;-70
2022/07/17 03:15:34;;;;;;;32.65;7.57;;;40.10;39.40;;;;;;4998623;28;20046;-69
2022/07/17 03:18:00;;;;;;;57.55;9.10;;;40.00;40.00;;;;;;5000862;28;20620;-70
2022/07/17 03:20:27;;;;;;;57.55;8.80;;;39.80;40.80;;;;;;4995180;28;20081;-71
2022/07/17 03:22:53;;;;;;;42.70;9.18;;;39.70;41.30;;;;;;5000365;28;20719;-69
2022/07/17 03:25:20;;;;;;;46.25;9.23;;;39.60;42.20;;;;;;4998383;28;20457;-69
2022/07/17 03:27:46;;;;;;;43.78;8.50;;;39.50;43.00;;;;;;5000952;28;20079;-69
2022/07/17 03:30:13;;;;;;;36.53;6.72;;;39.30;44.10;;;;;;5002695;28;20115;-69
2022/07/17 03:32:39;;;;;;;41.22;6.65;;;39.20;45.00;;;;;;4997623;28;20168;-68
2022/07/17 03:35:07;;;;;;;35.28;5.93;;;39.10;45.50;;;;;;5002387;28;20070;-69
2022/07/17 03:37:34;;;;;;;47.67;6.85;;;39.00;46.10;;;;;;4995399;28;20607;-71
2022/07/17 03:40:00;;;;;;;44.90;7.22;;;38.80;46.80;;;;;;5005475;28;20113;-69
2022/07/17 03:42:27;;;;;;;33.10;6.88;;;38.70;47.60;;;;;;4998473;28;21005;-70
2022/07/17 03:44:53;;;;;;;45.75;6.07;;;38.50;48.10;;;;;;5003680;28;20538;-69
2022/07/17 03:47:20;;;;;;;38.63;6.32;;;38.40;48.40;;;;;;4999436;28;20067;-70
2022/07/17 03:49:46;;;;;;;39.95;5.85;;;38.30;48.70;;;;;;4995921;28;20066;-70
2022/07/17 03:52:12;;;;;;;49.70;6.82;;;38.20;49.00;;;;;;4994886;28;20102;-71
2022/07/17 03:54:39;;;;;;;46.33;7.38;;;38.10;49.20;;;;;;4995979;28;20130;-71
2022/07/17 03:57:05;;;;;;;47.47;7.13;;;38.10;49.40;;;;;;4995825;28;20159;-70
2022/07/17 03:59:31;;;;;;;35.45;5.30;;;38.00;49.60;;;;;;4993692;28;20068;-70
2022/07/17 04:01:58;;;;;;;36.53;6.85;;;37.80;49.70;;;;;;4997542;28;20087;-70
2022/07/17 04:04:24;;;;;;;46.10;7.15;;;37.80;49.80;;;;;;4995088;28;20530;-70
2022/07/17 04:06:51;;;;;;;30.42;6.00;;;37.70;49.60;;;;;;4995444;28;20084;-70
2022/07/17 04:09:17;;;;;;;43.30;5.75;;;37.70;49.50;;;;;;4999683;28;20073;-71
2022/07/17 04:11:43;;;;;;;35.53;6.60;;;37.70;49.30;;;;;;4996440;28;20064;-70
2022/07/17 04:14:10;;;;;;;41.83;5.75;;;37.50;49.20;;;;;;4997025;28;20078;-73
2022/07/17 04:16:36;;;;;;;26.45;4.50;;;37.50;49.30;;;;;;4997051;28;20166;-71
2022/07/17 04:19:03;;;;;;;33.10;5.10;;;37.40;49.10;;;;;;4994118;28;20185;-71
2022/07/17 04:21:29;;;;;;;40.65;4.78;;;37.40;49.80;;;;;;4997424;28;20402;-69
2022/07/17 04:23:56;;;;;;;36.90;4.30;;;37.40;49.00;;;;;;4994642;28;20095;-71
2022/07/17 04:26:22;;;;;;;43.03;4.43;;;37.30;48.80;;;;;;4992927;28;20069;-69
2022/07/17 04:28:48;;;;;;;27.05;3.83;;;37.20;48.50;;;;;;4996176;28;20161;-70
2022/07/17 04:31:15;;;;;;;19.95;4.05;;;37.20;48.70;;;;;;4999134;28;20076;-71
2022/07/17 04:33:41;;;;;;;29.80;3.63;;;37.20;48.60;;;;;;4992230;28;20086;-70
2022/07/17 04:36:08;;;;;;;25.55;3.90;;;37.10;48.80;;;;;;4996556;28;20088;-69
2022/07/17 04:38:35;;;;;;;30.67;4.20;;;37.00;48.90;;;;;;4995301;28;20134;-72
2022/07/17 04:41:01;;;;;;;33.30;4.28;;;36.90;49.00;;;;;;4990792;28;20172;-70
2022/07/17 04:43:27;;;;;;;19.90;3.72;;;36.90;49.10;;;;;;4992751;28;20536;-70
2022/07/17 04:45:54;;;;;;;31.33;4.57;;;36.80;49.40;;;;;;4993530;28;20123;-70
2022/07/17 04:48:20;;;;;;;21.77;4.00;;;36.70;49.60;;;;;;4997248;28;20062;-70
2022/07/17 04:50:46;;;;;;;22.27;4.43;;;36.60;49.70;;;;;;4997138;28;20073;-71
2022/07/17 04:53:13;;;;;;;19.35;4.47;;;36.50;49.90;;;;;;4998401;28;20586;-70
2022/07/17 04:55:39;;;;;;;25.00;4.45;;;36.50;50.10;;;;;;5002171;28;20153;-70
2022/07/17 04:58:06;;;;;;;27.75;5.57;;;36.40;50.40;;;;;;4998687;28;20086;-72
2022/07/17 05:00:32;;;;;;;31.63;5.53;;;36.30;50.90;;;;;;4997970;28;20465;-70
2022/07/17 05:02:59;;;;;;;33.97;5.55;;;36.20;51.10;;;;;;4999273;28;20063;-71
2022/07/17 05:05:25;;;;;;;22.75;4.75;;;36.10;51.30;;;;;;4999399;28;20126;-71
2022/07/17 05:07:51;;;;;;;22.65;4.90;;;36.10;51.40;;;;;;4997294;28;20145;-71
2022/07/17 05:10:18;;;;;;;32.47;5.03;;;36.10;51.60;;;;;;4998990;28;20528;-72
2022/07/17 05:12:44;;;;;;;22.70;4.50;;;36.10;51.70;;;;;;4997253;28;20198;-72
2022/07/17 05:15:11;;;;;;;14.30;4.32;;;35.90;51.90;;;;;;4996314;28;20079;-70
2022/07/17 05:17:38;;;;;;;31.13;5.57;;;35.90;52.00;;;;;;5001640;28;20098;-69
2022/07/17 05:20:06;;;;;;;30.08;5.85;;;35.90;52.20;;;;;;4996989;28;20079;-71
2022/07/17 05:22:32;;;;;;;19.60;5.20;;;35.90;52.50;;;;;;4996731;28;20081;-71
2022/07/17 05:24:58;;;;;;;25.05;5.13;;;35.80;52.50;;;;;;4997509;28;20119;-71
2022/07/17 05:27:25;;;;;;;31.58;5.40;;;35.70;52.80;;;;;;4995680;28;20124;-70
2022/07/17 05:29:51;;;;;;;26.92;4.85;;;35.60;53.20;;;;;;5001026;28;20129;-70
2022/07/17 05:32:18;;;;;;;33.78;5.60;;;35.50;53.30;;;;;;5003266;28;20080;-70
2022/07/17 05:34:44;;;;;;;28.40;4.57;;;35.40;53.40;;;;;;4998098;28;20205;-69
2022/07/17 05:37:10;;;;;;;27.85;4.88;;;35.40;53.10;;;;;;4997266;28;20128;-70
2022/07/17 05:39:38;;;;;;;32.08;5.65;;;35.40;52.70;;;;;;5000133;28;20065;-70
2022/07/17 05:42:05;;;;;;;20.27;4.15;;;35.40;52.10;;;;;;4996662;28;20452;-70
2022/07/17 05:44:31;;;;;;;25.25;4.35;;;35.30;51.40;;;;;;5005872;28;20094;-71
2022/07/17 05:46:57;;;;;;;29.42;5.22;;;35.40;50.70;;;;;;4996347;28;20179;-69
2022/07/17 05:49:24;;;;;;;25.40;6.47;;;35.40;50.10;;;;;;4996191;28;20131;-71
2022/07/17 05:51:50;;;;;;;31.40;6.97;;;35.40;49.40;;;;;;4996734;28;20186;-69
2022/07/17 05:54:16;;;;;;;29.92;5.97;;;35.50;49.10;;;;;;4999902;28;20073;-71
2022/07/17 05:56:43;;;;;;;19.77;4.53;;;35.50;48.90;;;;;;4997160;28;20109;-69
2022/07/17 05:59:09;;;;;;;16.17;3.42;;;35.50;48.80;;;;;;4998135;28;20094;-72
2022/07/17 06:01:36;;;;;;;25.88;3.90;;;35.60;48.10;;;;;;4998426;28;20435;-70
2022/07/17 06:04:02;;;;;;;19.63;3.25;;;35.60;47.80;;;;;;4996619;28;20590;-71
2022/07/17 06:06:28;;;;;;;19.95;2.85;;;35.60;47.70;;;;;;5001961;28;20075;-72
2022/07/17 06:08:55;;;;;;;20.90;3.90;;;35.60;47.80;;;;;;4992674;28;20073;-71
2022/07/17 06:11:21;;;;;;;21.00;3.30;;;35.70;48.10;;;;;;5002899;28;20132;-69
2022/07/17 06:13:47;;;;;;;19.17;3.20;;;35.60;48.70;;;;;;4994896;28;20073;-73
2022/07/17 06:16:14;;;;;;;13.60;3.00;;;35.60;48.90;;;;;;4999197;28;20090;-69
2022/07/17 06:18:42;;;;;;;18.35;3.28;;;35.40;49.50;;;;;;4996488;28;20160;-73
2022/07/17 06:21:09;;;;;;;26.00;3.30;;;35.40;49.80;;;;;;4995934;28;20080;-70
2022/07/17 06:23:35;;;;;;;27.67;3.58;;;35.30;49.70;;;;;;5007242;28;20074;-72
2022/07/17 06:26:02;;;;;;;16.77;3.67;;;35.30;50.00;;;;;;4997803;28;20164;-71
2022/07/17 06:28:28;;;;;;;15.15;3.00;;;35.30;50.20;;;;;;5003701;28;20172;-71
2022/07/17 06:30:54;;;;;;;25.45;3.28;;;35.20;50.30;;;;;;4995769;28;20078;-69
2022/07/17 06:33:21;;;;;;;18.80;3.33;;;35.20;50.60;;;;;;5000432;28;20069;-72
2022/07/17 06:35:47;;;;;;;24.73;3.13;;;35.20;50.30;;;;;;4999265;28;20503;-70
2022/07/17 06:38:13;;;;;;;39.70;3.60;;;35.10;50.10;;;;;;4997987;28;20519;-70
2022/07/17 06:40:40;;;;;;;18.52;3.13;;;35.10;50.00;;;;;;4989955;28;20431;-70
2022/07/17 06:43:06;;;;;;;18.15;3.25;;;35.10;50.80;;;;;;5010691;28;20077;-70
2022/07/17 06:45:34;;;;;;;25.90;3.40;;;35.10;50.40;;;;;;4997898;28;20560;-68
2022/07/17 06:48:00;;;;;;;22.95;3.30;;;35.00;50.30;;;;;;4980565;28;20555;-70
2022/07/17 06:50:27;;;;;;;31.70;3.38;;;34.90;50.70;;;;;;5002319;28;20605;-70
2022/07/17 06:52:53;;;;;;;11.50;2.17;;;34.90;50.20;;;;;;5001817;28;20539;-70
2022/07/17 06:55:20;;;;;;;13.75;2.75;;;34.90;50.20;;;;;;4998352;28;20109;-69
2022/07/17 06:57:46;;;;;;;11.40;2.28;;;34.90;50.60;;;;;;4994549;28;20086;-69
2022/07/17 07:00:15;;;;;;;16.33;3.13;;;34.90;50.60;;;;;;4997074;28;20111;-67
2022/07/17 07:02:41;;;;;;;17.52;3.03;;;34.80;50.70;;;;;;4998781;28;20568;-71
2022/07/17 07:05:08;;;;;;;16.67;2.55;;;34.70;51.60;;;;;;4992319;28;20131;-69
2022/07/17 07:07:34;;;;;;;13.57;2.60;;;34.70;51.90;;;;;;4997818;28;20116;-73
2022/07/17 07:10:00;;;;;;;12.63;2.90;;;34.70;52.00;;;;;;5000694;28;20089;-70
2022/07/17 07:12:27;;;;;;;11.32;2.40;;;34.60;52.00;;;;;;4999760;28;20157;-72
2022/07/17 07:14:53;;;;;;;14.88;2.85;;;34.60;52.30;;;;;;4996153;28;20084;-71
2022/07/17 07:17:20;;;;;;;7.70;2.90;;;34.50;52.70;;;;;;5013356;28;20606;-72
2022/07/17 07:19:46;;;;;;;12.70;3.38;;;34.50;52.90;;;;;;4997498;28;20428;-72
2022/07/17 07:22:13;;;;;;;16.35;2.60;;;34.50;53.30;;;;;;5030454;22;20186;-72
2022/07/17 07:24:39;;;;;;;18.83;3.05;;;34.50;53.50;;;;;;5027884;28;20081;-70
2022/07/17 07:27:06;;;;;;;9.43;2.47;;;34.50;53.70;;;;;;5044684;28;20442;-71
2022/07/17 07:29:32;;;;;;;9.55;2.95;;;34.40;54.00;;;;;;5028779;28;20574;-73
2022/07/17 07:31:58;;;;;;;9.02;2.72;;;34.30;54.20;;;;;;5028199;28;20076;-71
2022/07/17 07:34:26;;;;;;;7.68;2.08;;;34.30;53.90;;;;;;5044407;28;20065;-70
2022/07/17 07:36:53;;;;;;;8.48;2.15;;;34.40;54.00;;;;;;5028648;28;20104;-73
2022/07/17 07:39:19;;;;;;;15.30;2.78;;;34.40;53.80;;;;;;5044430;28;20864;-72
2022/07/17 07:41:46;;;;;;;18.38;3.42;;;34.50;53.90;;;;;;5027512;28;20123;-71
2022/07/17 07:44:12;;;;;;;8.75;2.63;;;34.50;53.60;;;;;;5044123;28;20087;-71
2022/07/17 07:46:39;;;;;;;13.88;2.47;;;34.60;53.70;;;;;;5044258;28;20073;-72
2022/07/17 07:49:05;;;;;;;16.55;3.05;;;34.60;53.70;;;;;;5043699;28;20111;-71
2022/07/17 07:54:43;;;;;;;19.05;3.10;;;34.60;53.90;;;;;;5028047;28;20102;-71
2022/07/17 07:57:10;;;;;;;17.40;2.72;;;34.60;54.00;;;;;;5028052;28;20634;-72
2022/07/17 07:59:37;;;;;;;17.48;3.63;;;34.60;54.10;;;;;;5044456;28;20453;-71
2022/07/17 08:02:04;;;;;;;19.15;3.17;;;34.60;54.20;;;;;;5028789;28;20070;-72
2022/07/17 08:04:30;;;;;;;16.73;3.22;;;34.60;54.30;;;;;;5027730;28;20100;-70
2022/07/17 08:06:57;;;;;;;19.00;3.58;;;34.60;54.30;;;;;;5027176;28;20554;-73
2022/07/17 08:09:23;;;;;;;18.50;3.22;;;34.60;54.30;;;;;;5027532;28;20077;-71
2022/07/17 08:11:50;;;;;;;11.13;2.63;;;34.70;54.50;;;;;;5027070;28;20082;-71
2022/07/17 08:14:16;;;;;;;8.95;2.60;;;34.60;54.40;;;;;;5027511;28;20531;-71
2022/07/17 08:16:43;;;;;;;11.45;2.08;;;34.60;54.50;;;;;;5026499;28;20089;-71
2022/07/17 08:19:09;;;;;;;14.88;2.53;;;34.70;54.70;;;;;;5028597;28;20570;-71
2022/07/17 08:21:35;;;;;;;13.32;2.60;;;34.70;54.70;;;;;;5025956;28;20134;-74
2022/07/17 08:24:02;;;;;;;18.95;3.35;;;34.70;54.60;;;;;;5031245;28;20077;-74
2022/07/17 08:26:28;;;;;;;14.50;2.85;;;34.70;54.70;;;;;;5033254;28;20154;-73
2022/07/17 08:28:55;;;;;;;8.50;2.38;;;34.70;55.30;;;;;;5031232;28;20080;-71
2022/07/17 08:31:21;;;;;;;16.05;3.00;;;34.60;54.90;;;;;;5029432;28;20153;-73
2022/07/17 08:33:48;;;;;;;14.23;2.65;;;34.70;54.70;;;;;;5047515;28;20550;-71
2022/07/17 08:36:14;;;;;;;9.73;2.00;;;34.70;54.70;;;;;;5031344;28;20128;-72
2022/07/17 08:38:40;;;;;;;13.05;2.45;;;34.70;55.10;;;;;;5047778;28;20084;-73
2022/07/17 08:41:09;;;;;;;10.48;2.42;;;34.80;54.70;;;;;;5047806;28;20207;-71
2022/07/17 08:43:36;;;;;;;14.38;2.20;;;34.80;54.80;;;;;;5047947;28;20069;-72
2022/07/17 08:46:03;;;;;;;11.30;2.20;;;34.80;54.80;;;;;;5031020;28;20075;-72
2022/07/17 08:48:31;;;;;;;18.85;2.42;;;34.90;54.70;;;;;;5033736;28;20083;-73
2022/07/17 08:51:00;;;;;;;11.65;2.28;;;34.90;53.70;;;;;;5047729;28;20069;-71
2022/07/17 08:53:27;;;;;;;15.25;3.00;;;34.90;54.20;;;;;;5030604;28;20166;-71
2022/07/17 08:55:54;;;;;;;14.25;2.90;;;34.90;54.10;;;;;;5042957;22;20529;-72
2022/07/17 08:58:20;;;;;;;15.05;2.78;;;34.90;54.10;;;;;;5051123;28;20070;-72
2022/07/17 09:00:47;;;;;;;13.18;2.30;;;34.90;54.10;;;;;;5034774;28;20556;-71
2022/07/17 09:03:15;;;;;;;19.42;3.15;;;34.90;53.90;;;;;;5035399;28;22095;-72
2022/07/17 09:05:42;;;;;;;14.02;2.65;;;35.00;53.80;;;;;;5035085;28;20081;-72
2022/07/17 09:08:15;;;;;;;10.63;2.33;;;35.00;55.00;;;;;;5052803;28;20134;-72
2022/07/17 09:10:44;;;;;;;16.05;2.92;;;34.90;54.60;;;;;;5050625;28;20165;-74
2022/07/17 09:13:17;;;;;;;16.48;3.55;;;34.90;54.40;;;;;;5057372;28;20104;-73
2022/07/17 09:15:44;;;;;;;13.43;2.75;;;34.90;54.20;;;;;;5034383;28;20510;-71
2022/07/17 09:18:10;;;;;;;13.55;2.85;;;35.00;54.30;;;;;;5035525;28;20163;-71
2022/07/17 09:20:55;;;;;;;14.18;2.70;;;35.00;54.70;;;;;;5035667;28;20230;-72
2022/07/17 09:23:24;;;;;;;12.32;2.40;;;35.00;54.10;;;;;;5050003;28;20111;-73
2022/07/17 09:25:53;;;;;;;13.82;2.30;;;35.10;53.90;;;;;;5035132;28;20141;-72
2022/07/17 09:28:20;;;;;;;11.18;2.38;;;35.10;54.60;;;;;;5043138;28;20538;-72
2022/07/17 09:30:49;;;;;;;11.65;2.58;;;35.00;54.30;;;;;;5051197;28;20126;-74
2022/07/17 09:33:18;;;;;;;14.48;3.10;;;35.10;54.30;;;;;;5046624;28;20147;-71
2022/07/17 09:35:50;;;;;;;11.73;2.90;;;35.10;53.80;;;;;;5039832;28;20548;-73
2022/07/17 09:38:27;;;;;;;18.17;3.20;;;35.00;54.10;;;;;;5065749;28;20101;-71
2022/07/17 09:41:21;;;;;;;22.40;3.38;;;35.10;54.30;;;;;;5049528;28;20068;-72
2022/07/17 09:43:52;;;;;;;16.63;3.17;;;35.10;54.30;;;;;;5046420;28;20090;-71
2022/07/17 09:46:20;;;;;;;12.63;3.88;;;35.10;54.60;;;;;;5066204;28;20075;-72
2022/07/17 09:48:51;;;;;;;12.13;3.30;;;35.00;54.20;;;;;;5049432;28;20073;-72
2022/07/17 09:51:23;;;;;;;16.88;3.50;;;35.00;55.10;;;;;;5066871;28;20179;-72
2022/07/17 09:53:54;;;;;;;9.38;3.13;;;35.00;55.10;;;;;;5049367;28;20082;-72
2022/07/17 09:56:23;;;;;;;15.18;3.22;;;35.10;54.30;;;;;;5050860;28;20104;-72
2022/07/17 09:58:52;;;;;;;17.65;3.35;;;35.10;54.50;;;;;;5066229;28;20076;-74
2022/07/17 10:01:19;;;;;;;10.55;3.25;;;35.10;54.70;;;;;;5048764;28;20078;-74
2022/07/17 10:03:51;;;;;;;22.30;4.35;;;35.10;54.50;;;;;;5026430;22;20113;-72
2022/07/17 10:06:18;;;;;;;16.65;4.18;;;35.10;54.30;;;;;;5009574;28;20087;-72
2022/07/17 10:08:44;;;;;;;15.82;4.22;;;35.10;54.50;;;;;;5026062;28;20072;-74
2022/07/17 10:11:15;;;;;;;21.88;4.47;;;35.10;54.40;;;;;;5011211;28;20087;-76
2022/07/17 10:13:45;;;;;;;27.00;4.93;;;35.10;54.10;;;;;;5011043;28;20084;-73
2022/07/17 10:16:13;;;;;;;11.57;3.60;;;35.10;54.00;;;;;;4992551;28;20073;-73
2022/07/17 10:18:44;;;;;;;24.88;4.80;;;35.10;54.30;;;;;;5014701;28;20068;-74
2022/07/17 10:21:21;;;;;;;20.90;3.95;;;35.10;54.40;;;;;;5012426;28;20530;-73
2022/07/17 10:23:53;;;;;;;19.23;3.92;;;35.00;54.10;;;;;;5009343;28;20554;-72
2022/07/17 10:26:44;;;;;;;20.08;4.20;;;34.90;55.00;;;;;;5011526;28;20162;-73
2022/07/17 10:29:31;;;;;;;17.63;4.43;;;34.70;56.20;;;;;;5026097;28;20180;-71
2022/07/17 10:31:59;;;;;;;14.32;3.33;;;34.70;56.80;;;;;;5035059;28;20096;-73
2022/07/17 10:34:44;;;;;;;13.65;3.60;;;34.70;56.10;;;;;;5016197;28;20077;-71
2022/07/17 10:37:24;;;;;;;10.57;3.30;;;34.60;56.30;;;;;;4993548;28;20089;-73
2022/07/17 10:39:53;;;;;;;12.77;2.65;;;34.60;55.80;;;;;;5006279;28;20073;-75
2022/07/17 10:42:37;;;;;;;12.63;3.10;;;34.60;56.40;;;;;;4992156;28;20139;-75
2022/07/17 10:45:09;;;;;;;13.70;3.20;;;34.60;55.40;;;;;;4989073;28;20070;-75
2022/07/17 10:47:54;;;;;;;22.55;3.20;;;34.70;55.00;;;;;;4991143;28;20532;-76
2022/07/17 10:50:35;;;;;;;20.80;3.88;;;34.70;54.70;;;;;;4990195;28;20075;-70
2022/07/17 10:53:12;;;;;;;18.35;3.38;;;34.70;54.80;;;;;;4989534;28;20091;-76
2022/07/17 10:55:47;;;;;;;14.15;2.72;;;34.60;55.00;;;;;;4991475;28;20139;-74
2022/07/17 10:58:23;;;;;;;15.30;3.60;;;34.60;55.20;;;;;;4988526;28;20100;-74
2022/07/17 11:01:04;;;;;;;16.00;3.40;;;34.60;55.50;;;;;;4989550;28;20070;-72
2022/07/17 11:03:36;;;;;;;16.00;3.17;;;34.60;55.80;;;;;;4989023;28;20708;-73
2022/07/17 11:06:16;;;;;;;13.70;3.65;;;34.50;55.80;;;;;;4988713;28;20070;-70
2022/07/17 11:08:43;;;;;;;12.98;4.03;;;34.40;55.90;;;;;;4995536;28;20077;-72
2022/07/17 11:11:10;;;;;;;17.92;4.55;;;34.50;56.40;;;;;;5010462;28;20165;-71
2022/07/17 11:13:36;;;;;;;24.80;4.30;;;34.30;56.30;;;;;;4990406;28;20093;-71
2022/07/17 11:16:03;;;;;;;21.30;4.65;;;34.30;56.90;;;;;;5009484;28;20065;-72
2022/07/17 11:18:30;;;;;;;25.67;5.00;;;34.20;56.90;;;;;;4990113;28;20105;-74
2022/07/17 11:21:01;;;;;;;16.42;4.80;;;34.20;57.40;;;;;;4989146;28;20165;-71
2022/07/17 11:23:33;;;;;;;23.00;4.75;;;34.20;57.90;;;;;;5005249;28;20074;-71
2022/07/17 11:26:05;;;;;;;14.82;4.13;;;34.20;57.10;;;;;;5037221;22;20209;-70
2022/07/17 11:28:44;;;;;;;19.08;3.60;;;34.00;56.10;;;;;;5046101;28;20102;-75
2022/07/17 11:31:20;;;;;;;17.30;3.80;;;33.80;55.80;;;;;;5037733;28;20081;-74
2022/07/17 11:33:52;;;;;;;17.35;4.10;;;33.80;55.70;;;;;;5045605;28;20091;-72
2022/07/17 11:36:22;;;;;;;19.58;4.00;;;33.80;56.20;;;;;;5036116;28;20116;-71
2022/07/17 11:38:49;;;;;;;25.17;4.55;;;33.70;54.80;;;;;;5028164;28;20077;-69
2022/07/17 11:41:19;;;;;;;20.77;4.35;;;33.70;53.60;;;;;;5023816;28;20072;-72
2022/07/17 11:43:47;;;;;;;21.10;4.22;;;33.60;52.90;;;;;;5012738;28;20107;-72
2022/07/17 11:46:16;;;;;;;13.07;3.85;;;33.60;52.80;;;;;;5029028;28;20089;-73
2022/07/17 11:48:44;;;;;;;15.02;5.10;;;33.50;52.80;;;;;;5026658;28;20073;-70
2022/07/17 11:51:11;;;;;;;23.65;7.75;;;33.40;52.60;;;;;;5017243;28;20077;-70
2022/07/17 11:53:39;;;;;;;49.38;18.52;;;33.50;52.90;;;;;;5026417;28;20645;-72
2022/07/17 11:56:06;;;;;;;36.35;13.18;;;33.50;53.10;;;;;;5031718;28;20178;-73
2022/07/17 11:58:44;;;;;;;40.85;10.15;;;33.50;52.80;;;;;;5018616;28;20069;-70
2022/07/17 12:01:12;;;;;;;29.63;7.63;;;33.50;52.90;;;;;;5030600;28;20079;-71
2022/07/17 12:03:38;;;;;;;26.33;6.32;;;33.40;53.40;;;;;;5010642;28;20074;-72
2022/07/17 12:06:05;;;;;;;35.22;6.85;;;33.40;53.70;;;;;;5028977;28;20125;-71
2022/07/17 12:08:32;;;;;;;20.17;4.20;;;33.50;54.10;;;;;;5027572;28;20108;-68
2022/07/17 12:11:09;;;;;;;14.63;3.60;;;33.40;54.80;;;;;;5014094;28;20080;-71
2022/07/17 12:13:48;;;;;;;15.73;3.35;;;33.40;55.30;;;;;;5027180;28;20101;-69
2022/07/17 12:16:31;;;;;;;11.82;2.88;;;33.30;56.30;;;;;;5030265;28;20091;-73
2022/07/17 12:19:11;;;;;;;10.30;3.53;;;33.30;56.70;;;;;;5027508;28;20089;-73
2022/07/17 12:21:55;;;;;;;11.27;2.60;;;33.30;57.20;;;;;;5018299;28;20439;-71
2022/07/17 12:24:26;;;;;;;11.05;3.42;;;33.30;58.70;;;;;;5045740;28;20790;-72
2022/07/17 12:26:53;;;;;;;12.57;4.15;;;33.20;58.60;;;;;;5031933;28;20152;-72
2022/07/17 12:29:20;;;;;;;14.65;3.80;;;33.30;59.10;;;;;;5026838;28;20105;-74
2022/07/17 12:31:46;;;;;;;18.85;4.20;;;33.20;60.00;;;;;;5028508;28;20541;-74
2022/07/17 12:34:13;;;;;;;16.90;3.45;;;33.10;61.20;;;;;;5030318;28;20076;-73
2022/07/17 12:36:39;;;;;;;12.52;3.80;;;33.10;62.20;;;;;;5029833;28;20628;-71
2022/07/17 12:39:06;;;;;;;14.77;3.53;;;33.10;62.90;;;;;;5035011;22;21494;-72
2022/07/17 12:41:32;;;;;;;12.77;3.22;;;33.10;64.10;;;;;;5022270;28;20069;-71
2022/07/17 12:43:59;;;;;;;15.25;3.25;;;33.00;64.90;;;;;;5022838;28;20600;-72
2022/07/17 12:46:25;;;;;;;14.48;3.13;;;33.00;65.60;;;;;;5011916;28;20089;-71